sensor_id;sensor_type;location;lat;lon;timestamp;pressure;altitude;pressure_sealevel;temperature;humidity
13387;BME280;6763;48.524;9.044;2023-03-14T00:02:18;96249.41;;;14.79;60.62
13387;BME280;6763;48.524;9.044;2023-03-14T00:04:44;96232.88;;;14.80;60.46
13387;BME280;6763;48.524;9.044;2023-03-14T00:07:13;96192.03;;;14.81;60.15
13387;BME280;6763;48.524;9.044;2023-03-14T00:09:39;96178.25;;;14.79;60.07
13387;BME280;6763;48.524;9.044;2023-03-14T00:12:04;96192.41;;;14.75;60.17
13387;BME280;6763;48.524;9.044;2023-03-14T00:14:31;96187.84;;;14.78;59.92
13387;BME280;6763;48.524;9.044;2023-03-14T00:16:56;96193.97;;;14.77;59.91
13387;BME280;6763;48.524;9.044;2023-03-14T00:19:22;96183.75;;;14.74;59.80
13387;BME280;6763;48.524;9.044;2023-03-14T00:21:47;96182.06;;;14.73;59.75
13387;BME280;6763;48.524;9.044;2023-03-14T00:24:13;96184.03;;;14.70;59.90
13387;BME280;6763;48.524;9.044;2023-03-14T00:26:38;96189.97;;;14.72;60.01
13387;BME280;6763;48.524;9.044;2023-03-14T00:29:03;96196.88;;;14.73;59.73
13387;BME280;6763;48.524;9.044;2023-03-14T00:31:29;96196.94;;;14.71;60.05
13387;BME280;6763;48.524;9.044;2023-03-14T00:33:54;96203.84;;;14.72;60.02
13387;BME280;6763;48.524;9.044;2023-03-14T00:36:20;96193.50;;;14.71;59.94
13387;BME280;6763;48.524;9.044;2023-03-14T00:38:48;96197.69;;;14.73;60.05
13387;BME280;6763;48.524;9.044;2023-03-14T00:41:16;96196.88;;;14.73;59.86
13387;BME280;6763;48.524;9.044;2023-03-14T00:43:43;96216.94;;;14.71;59.74
13387;BME280;6763;48.524;9.044;2023-03-14T00:46:08;96209.97;;;14.71;59.80
13387;BME280;6763;48.524;9.044;2023-03-14T00:48:37;96210.06;;;14.70;60.01
13387;BME280;6763;48.524;9.044;2023-03-14T00:51:04;96219.66;;;14.69;60.33
13387;BME280;6763;48.524;9.044;2023-03-14T00:53:30;96219.75;;;14.68;60.11
13387;BME280;6763;48.524;9.044;2023-03-14T00:55:55;96227.63;;;14.66;60.47
13387;BME280;6763;48.524;9.044;2023-03-14T00:58:20;96230.34;;;14.65;60.33
13387;BME280;6763;48.524;9.044;2023-03-14T01:00:46;96226.22;;;14.61;60.38
13387;BME280;6763;48.524;9.044;2023-03-14T01:03:14;96233.78;;;14.65;60.60
13387;BME280;6763;48.524;9.044;2023-03-14T01:05:39;96223.56;;;14.62;60.20
13387;BME280;6763;48.524;9.044;2023-03-14T01:08:06;96212.41;;;14.60;60.35
13387;BME280;6763;48.524;9.044;2023-03-14T01:10:32;96202.72;;;14.62;59.63
13387;BME280;6763;48.524;9.044;2023-03-14T01:12:57;96212.84;;;14.67;59.72
13387;BME280;6763;48.524;9.044;2023-03-14T01:15:23;96202.34;;;14.68;59.62
13387;BME280;6763;48.524;9.044;2023-03-14T01:17:48;96201.41;;;14.69;59.53
13387;BME280;6763;48.524;9.044;2023-03-14T01:20:14;96186.53;;;14.71;59.31
13387;BME280;6763;48.524;9.044;2023-03-14T01:22:41;96184.59;;;14.75;59.15
13387;BME280;6763;48.524;9.044;2023-03-14T01:25:11;96183.75;;;14.74;59.43
13387;BME280;6763;48.524;9.044;2023-03-14T01:27:37;96185.50;;;14.74;59.44
13387;BME280;6763;48.524;9.044;2023-03-14T01:30:03;96184.66;;;14.73;59.66
13387;BME280;6763;48.524;9.044;2023-03-14T01:32:29;96178.81;;;14.70;59.31
13387;BME280;6763;48.524;9.044;2023-03-14T01:34:54;96157.25;;;14.68;59.16
13387;BME280;6763;48.524;9.044;2023-03-14T01:37:20;96154.72;;;14.66;59.08
13387;BME280;6763;48.524;9.044;2023-03-14T01:39:47;96164.41;;;14.64;59.66
13387;BME280;6763;48.524;9.044;2023-03-14T01:42:13;96162.94;;;14.60;59.79
13387;BME280;6763;48.524;9.044;2023-03-14T01:44:59;96148.97;;;14.61;59.36
13387;BME280;6763;48.524;9.044;2023-03-14T01:47:25;96151.66;;;14.60;59.88
13387;BME280;6763;48.524;9.044;2023-03-14T01:50:10;96133.53;;;14.58;59.07
13387;BME280;6763;48.524;9.044;2023-03-14T01:52:40;96130.91;;;14.58;59.51
13387;BME280;6763;48.524;9.044;2023-03-14T01:55:20;96127.69;;;14.55;58.69
13387;BME280;6763;48.524;9.044;2023-03-14T01:57:53;96143.47;;;14.52;58.94
13387;BME280;6763;48.524;9.044;2023-03-14T02:00:22;96139.13;;;14.52;58.86
13387;BME280;6763;48.524;9.044;2023-03-14T02:02:51;96138.16;;;14.53;58.60
13387;BME280;6763;48.524;9.044;2023-03-14T02:05:23;96152.94;;;14.53;58.24
13387;BME280;6763;48.524;9.044;2023-03-14T02:07:56;96149.53;;;14.52;58.45
13387;BME280;6763;48.524;9.044;2023-03-14T02:10:25;96140.31;;;14.47;58.44
13387;BME280;6763;48.524;9.044;2023-03-14T02:12:53;96144.56;;;14.48;58.43
13387;BME280;6763;48.524;9.044;2023-03-14T02:15:20;96127.13;;;14.50;57.80
13387;BME280;6763;48.524;9.044;2023-03-14T02:17:47;96121.16;;;14.48;57.64
13387;BME280;6763;48.524;9.044;2023-03-14T02:22:40;96111.03;;;14.57;57.49
13387;BME280;6763;48.524;9.044;2023-03-14T02:25:12;96097.00;;;14.60;57.23
13387;BME280;6763;48.524;9.044;2023-03-14T02:27:39;96096.16;;;14.59;57.32
13387;BME280;6763;48.524;9.044;2023-03-14T02:30:14;96105.34;;;14.65;56.96
13387;BME280;6763;48.524;9.044;2023-03-14T02:32:44;96117.66;;;14.63;56.66
13387;BME280;6763;48.524;9.044;2023-03-14T02:35:14;96113.06;;;14.66;56.95
13387;BME280;6763;48.524;9.044;2023-03-14T02:37:49;96096.41;;;14.69;56.50
13387;BME280;6763;48.524;9.044;2023-03-14T02:40:16;96110.56;;;14.65;56.29
13387;BME280;6763;48.524;9.044;2023-03-14T02:42:41;96102.94;;;14.62;56.60
13387;BME280;6763;48.524;9.044;2023-03-14T02:47:32;96093.72;;;14.70;56.20
13387;BME280;6763;48.524;9.044;2023-03-14T02:50:02;96083.41;;;14.69;55.64
13387;BME280;6763;48.524;9.044;2023-03-14T02:52:28;96080.25;;;14.64;55.78
13387;BME280;6763;48.524;9.044;2023-03-14T02:54:54;96064.91;;;14.59;56.09
13387;BME280;6763;48.524;9.044;2023-03-14T02:57:20;96074.47;;;14.59;55.89
13387;BME280;6763;48.524;9.044;2023-03-14T02:59:45;96090.66;;;14.64;55.88
13387;BME280;6763;48.524;9.044;2023-03-14T03:02:10;96078.59;;;14.63;55.87
13387;BME280;6763;48.524;9.044;2023-03-14T03:04:36;96079.25;;;14.52;55.90
13387;BME280;6763;48.524;9.044;2023-03-14T03:07:01;96066.97;;;14.54;55.77
13387;BME280;6763;48.524;9.044;2023-03-14T03:09:26;96062.84;;;14.64;55.53
13387;BME280;6763;48.524;9.044;2023-03-14T03:11:52;96056.63;;;14.67;55.45
13387;BME280;6763;48.524;9.044;2023-03-14T03:14:17;96055.22;;;14.61;55.46
13387;BME280;6763;48.524;9.044;2023-03-14T03:16:42;96063.22;;;14.58;55.25
13387;BME280;6763;48.524;9.044;2023-03-14T03:19:08;96059.16;;;14.54;55.58
13387;BME280;6763;48.524;9.044;2023-03-14T03:21:33;96054.56;;;14.58;55.35
13387;BME280;6763;48.524;9.044;2023-03-14T03:24:00;96051.72;;;14.62;55.22
13387;BME280;6763;48.524;9.044;2023-03-14T03:26:28;96041.47;;;14.59;55.20
13387;BME280;6763;48.524;9.044;2023-03-14T03:28:53;96037.28;;;14.57;54.77
13387;BME280;6763;48.524;9.044;2023-03-14T03:31:18;96034.78;;;14.55;55.47
13387;BME280;6763;48.524;9.044;2023-03-14T03:33:44;96033.19;;;14.53;54.95
13387;BME280;6763;48.524;9.044;2023-03-14T03:36:09;96021.97;;;14.38;55.07
13387;BME280;6763;48.524;9.044;2023-03-14T03:38:35;96018.72;;;14.35;54.85
13387;BME280;6763;48.524;9.044;2023-03-14T03:41:10;96023.28;;;14.31;54.88
13387;BME280;6763;48.524;9.044;2023-03-14T03:43:36;96011.00;;;14.33;54.88
13387;BME280;6763;48.524;9.044;2023-03-14T03:46:06;96012.31;;;14.40;54.36
13387;BME280;6763;48.524;9.044;2023-03-14T03:48:32;96013.88;;;14.43;54.24
13387;BME280;6763;48.524;9.044;2023-03-14T03:50:57;96010.53;;;14.41;54.17
13387;BME280;6763;48.524;9.044;2023-03-14T03:53:23;96012.22;;;14.42;54.04
13387;BME280;6763;48.524;9.044;2023-03-14T03:55:48;96010.66;;;14.39;53.84
13387;BME280;6763;48.524;9.044;2023-03-14T03:58:16;96007.28;;;14.37;54.09
13387;BME280;6763;48.524;9.044;2023-03-14T04:00:42;96004.91;;;14.34;53.95
13387;BME280;6763;48.524;9.044;2023-03-14T04:03:10;96002.38;;;14.33;53.91
13387;BME280;6763;48.524;9.044;2023-03-14T04:05:35;96014.34;;;14.35;53.39
13387;BME280;6763;48.524;9.044;2023-03-14T04:08:01;96009.16;;;14.35;53.10
13387;BME280;6763;48.524;9.044;2023-03-14T04:10:26;96015.09;;;14.37;52.88
13387;BME280;6763;48.524;9.044;2023-03-14T04:12:52;96013.44;;;14.36;52.77
13387;BME280;6763;48.524;9.044;2023-03-14T04:15:17;95992.94;;;14.30;53.19
13387;BME280;6763;48.524;9.044;2023-03-14T04:17:43;95998.00;;;14.33;52.56
13387;BME280;6763;48.524;9.044;2023-03-14T04:20:09;95989.63;;;14.28;52.46
13387;BME280;6763;48.524;9.044;2023-03-14T04:22:38;96000.75;;;14.30;52.45
13387;BME280;6763;48.524;9.044;2023-03-14T04:25:04;96004.38;;;14.27;52.49
13387;BME280;6763;48.524;9.044;2023-03-14T04:27:31;95996.94;;;14.21;52.26
13387;BME280;6763;48.524;9.044;2023-03-14T04:29:56;95985.53;;;14.24;51.69
13387;BME280;6763;48.524;9.044;2023-03-14T04:32:24;95977.81;;;14.22;51.24
13387;BME280;6763;48.524;9.044;2023-03-14T04:34:49;95979.38;;;14.25;51.29
13387;BME280;6763;48.524;9.044;2023-03-14T04:37:14;95968.91;;;14.26;51.14
13387;BME280;6763;48.524;9.044;2023-03-14T04:39:40;95967.03;;;14.28;50.69
13387;BME280;6763;48.524;9.044;2023-03-14T04:42:05;95961.09;;;14.26;50.64
13387;BME280;6763;48.524;9.044;2023-03-14T04:44:31;95955.13;;;14.24;50.15
13387;BME280;6763;48.524;9.044;2023-03-14T04:46:56;95962.75;;;14.27;50.13
13387;BME280;6763;48.524;9.044;2023-03-14T04:49:22;95955.63;;;14.31;49.84
13387;BME280;6763;48.524;9.044;2023-03-14T04:51:47;95947.66;;;14.34;49.44
13387;BME280;6763;48.524;9.044;2023-03-14T04:54:13;95949.00;;;14.40;49.22
13387;BME280;6763;48.524;9.044;2023-03-14T04:56:41;95941.75;;;14.45;49.03
13387;BME280;6763;48.524;9.044;2023-03-14T04:59:06;95940.28;;;14.41;48.94
13387;BME280;6763;48.524;9.044;2023-03-14T05:01:33;95927.97;;;14.43;49.15
13387;BME280;6763;48.524;9.044;2023-03-14T05:03:58;95921.13;;;14.42;48.71
13387;BME280;6763;48.524;9.044;2023-03-14T05:06:24;95936.44;;;14.46;48.67
13387;BME280;6763;48.524;9.044;2023-03-14T05:08:49;95915.97;;;14.54;48.35
13387;BME280;6763;48.524;9.044;2023-03-14T05:11:14;95913.38;;;14.54;48.17
13387;BME280;6763;48.524;9.044;2023-03-14T05:13:40;95910.13;;;14.51;47.96
13387;BME280;6763;48.524;9.044;2023-03-14T05:16:07;95909.00;;;14.55;48.21
13387;BME280;6763;48.524;9.044;2023-03-14T05:18:33;95912.63;;;14.52;47.68
13387;BME280;6763;48.524;9.044;2023-03-14T05:20:59;95903.16;;;14.51;47.84
13387;BME280;6763;48.524;9.044;2023-03-14T05:23:24;95897.75;;;14.54;47.42
13387;BME280;6763;48.524;9.044;2023-03-14T05:25:50;95894.97;;;14.57;47.52
13387;BME280;6763;48.524;9.044;2023-03-14T05:28:15;95896.41;;;14.61;47.55
13387;BME280;6763;48.524;9.044;2023-03-14T05:30:40;95892.69;;;14.65;47.15
13387;BME280;6763;48.524;9.044;2023-03-14T05:33:06;95889.06;;;14.68;47.32
13387;BME280;6763;48.524;9.044;2023-03-14T05:35:31;95888.22;;;14.67;47.18
13387;BME280;6763;48.524;9.044;2023-03-14T05:37:56;95873.72;;;14.63;47.25
13387;BME280;6763;48.524;9.044;2023-03-14T05:40:22;95874.22;;;14.56;47.43
13387;BME280;6763;48.524;9.044;2023-03-14T05:43:00;95876.81;;;14.56;47.05
13387;BME280;6763;48.524;9.044;2023-03-14T05:45:26;95880.38;;;14.55;47.34
13387;BME280;6763;48.524;9.044;2023-03-14T05:47:52;95869.97;;;14.55;46.86
13387;BME280;6763;48.524;9.044;2023-03-14T05:50:17;95855.06;;;14.57;46.95
13387;BME280;6763;48.524;9.044;2023-03-14T05:52:42;95865.56;;;14.55;46.89
13387;BME280;6763;48.524;9.044;2023-03-14T05:55:08;95858.06;;;14.51;47.53
13387;BME280;6763;48.524;9.044;2023-03-14T05:57:33;95862.41;;;14.50;47.35
13387;BME280;6763;48.524;9.044;2023-03-14T05:59:59;95863.47;;;14.48;47.40
13387;BME280;6763;48.524;9.044;2023-03-14T06:02:24;95854.31;;;14.42;47.54
13387;BME280;6763;48.524;9.044;2023-03-14T06:04:49;95852.81;;;14.38;47.37
13387;BME280;6763;48.524;9.044;2023-03-14T06:07:15;95852.16;;;14.35;47.41
13387;BME280;6763;48.524;9.044;2023-03-14T06:09:40;95851.69;;;14.42;47.19
13387;BME280;6763;48.524;9.044;2023-03-14T06:12:06;95849.91;;;14.43;47.28
13387;BME280;6763;48.524;9.044;2023-03-14T06:14:31;95858.75;;;14.40;47.46
13387;BME280;6763;48.524;9.044;2023-03-14T06:16:56;95850.75;;;14.43;47.54
13387;BME280;6763;48.524;9.044;2023-03-14T06:19:24;95849.63;;;14.47;47.07
13387;BME280;6763;48.524;9.044;2023-03-14T06:21:50;95850.34;;;14.49;47.23
13387;BME280;6763;48.524;9.044;2023-03-14T06:24:16;95844.00;;;14.53;46.96
13387;BME280;6763;48.524;9.044;2023-03-14T06:26:41;95845.50;;;14.57;46.93
13387;BME280;6763;48.524;9.044;2023-03-14T06:29:06;95850.72;;;14.70;46.79
13387;BME280;6763;48.524;9.044;2023-03-14T06:31:32;95851.69;;;14.81;46.58
13387;BME280;6763;48.524;9.044;2023-03-14T06:33:58;95845.22;;;14.87;46.19
13387;BME280;6763;48.524;9.044;2023-03-14T06:36:24;95849.94;;;14.95;46.01
13387;BME280;6763;48.524;9.044;2023-03-14T06:38:49;95841.19;;;14.96;46.00
13387;BME280;6763;48.524;9.044;2023-03-14T06:41:15;95838.59;;;14.96;46.27
13387;BME280;6763;48.524;9.044;2023-03-14T06:43:40;95844.44;;;14.99;46.43
13387;BME280;6763;48.524;9.044;2023-03-14T06:46:06;95842.44;;;15.03;46.08
13387;BME280;6763;48.524;9.044;2023-03-14T06:48:31;95845.75;;;15.05;46.54
13387;BME280;6763;48.524;9.044;2023-03-14T06:50:56;95845.03;;;15.03;46.12
13387;BME280;6763;48.524;9.044;2023-03-14T06:53:22;95859.53;;;15.07;46.18
13387;BME280;6763;48.524;9.044;2023-03-14T06:55:47;95856.44;;;15.14;46.18
13387;BME280;6763;48.524;9.044;2023-03-14T06:58:12;95864.13;;;15.28;45.99
13387;BME280;6763;48.524;9.044;2023-03-14T07:00:38;95864.88;;;15.43;45.52
13387;BME280;6763;48.524;9.044;2023-03-14T07:03:03;95876.16;;;15.56;45.31
13387;BME280;6763;48.524;9.044;2023-03-14T07:05:29;95863.19;;;15.67;44.87
13387;BME280;6763;48.524;9.044;2023-03-14T07:07:54;95866.63;;;15.80;44.92
13387;BME280;6763;48.524;9.044;2023-03-14T07:10:20;95859.09;;;15.88;44.56
13387;BME280;6763;48.524;9.044;2023-03-14T07:12:45;95865.84;;;16.03;44.64
13387;BME280;6763;48.524;9.044;2023-03-14T07:15:11;95871.16;;;16.14;43.95
13387;BME280;6763;48.524;9.044;2023-03-14T07:17:36;95864.25;;;16.13;43.92
13387;BME280;6763;48.524;9.044;2023-03-14T07:20:02;95862.13;;;16.19;43.93
13387;BME280;6763;48.524;9.044;2023-03-14T07:22:29;95872.38;;;16.22;44.27
13387;BME280;6763;48.524;9.044;2023-03-14T07:24:55;95872.56;;;16.19;44.31
13387;BME280;6763;48.524;9.044;2023-03-14T07:27:20;95871.78;;;16.18;44.30
13387;BME280;6763;48.524;9.044;2023-03-14T07:29:45;95861.53;;;16.15;44.56
13387;BME280;6763;48.524;9.044;2023-03-14T07:32:11;95863.72;;;16.21;43.68
13387;BME280;6763;48.524;9.044;2023-03-14T07:34:42;95867.00;;;16.36;43.35
13387;BME280;6763;48.524;9.044;2023-03-14T07:37:08;95861.59;;;16.50;43.00
13387;BME280;6763;48.524;9.044;2023-03-14T07:39:33;95870.50;;;16.60;42.71
13387;BME280;6763;48.524;9.044;2023-03-14T07:41:59;95882.72;;;16.59;41.98
13387;BME280;6763;48.524;9.044;2023-03-14T07:44:25;95876.81;;;16.68;42.12
13387;BME280;6763;48.524;9.044;2023-03-14T07:46:50;95864.16;;;16.75;41.78
13387;BME280;6763;48.524;9.044;2023-03-14T07:49:15;95882.91;;;16.80;41.46
13387;BME280;6763;48.524;9.044;2023-03-14T07:51:41;95888.88;;;16.82;41.07
13387;BME280;6763;48.524;9.044;2023-03-14T07:54:06;95890.28;;;16.86;41.19
13387;BME280;6763;48.524;9.044;2023-03-14T07:56:32;95894.63;;;16.98;41.11
13387;BME280;6763;48.524;9.044;2023-03-14T07:58:58;95899.56;;;17.14;40.92
13387;BME280;6763;48.524;9.044;2023-03-14T08:01:23;95895.75;;;17.53;40.32
13387;BME280;6763;48.524;9.044;2023-03-14T08:03:48;95894.94;;;17.85;39.66
13387;BME280;6763;48.524;9.044;2023-03-14T08:06:14;95893.50;;;18.15;39.16
13387;BME280;6763;48.524;9.044;2023-03-14T08:08:40;95887.91;;;18.19;38.35
13387;BME280;6763;48.524;9.044;2023-03-14T08:11:06;95889.56;;;18.20;38.20
13387;BME280;6763;48.524;9.044;2023-03-14T08:13:34;95890.50;;;18.19;37.69
13387;BME280;6763;48.524;9.044;2023-03-14T08:15:59;95891.72;;;18.15;37.73
13387;BME280;6763;48.524;9.044;2023-03-14T08:18:25;95887.66;;;18.11;37.68
13387;BME280;6763;48.524;9.044;2023-03-14T08:20:50;95889.34;;;18.01;37.73
13387;BME280;6763;48.524;9.044;2023-03-14T08:23:15;95894.69;;;17.88;38.28
13387;BME280;6763;48.524;9.044;2023-03-14T08:25:41;95898.72;;;17.92;38.07
13387;BME280;6763;48.524;9.044;2023-03-14T08:28:06;95900.19;;;17.96;38.09
13387;BME280;6763;48.524;9.044;2023-03-14T08:30:31;95892.56;;;18.05;38.36
13387;BME280;6763;48.524;9.044;2023-03-14T08:32:57;95899.44;;;18.17;37.97
13387;BME280;6763;48.524;9.044;2023-03-14T08:35:24;95895.59;;;18.32;37.72
13387;BME280;6763;48.524;9.044;2023-03-14T08:37:50;95900.50;;;18.47;37.49
13387;BME280;6763;48.524;9.044;2023-03-14T08:40:17;95883.53;;;18.63;37.08
13387;BME280;6763;48.524;9.044;2023-03-14T08:42:42;95895.31;;;18.68;36.75
13387;BME280;6763;48.524;9.044;2023-03-14T08:45:10;95901.41;;;18.69;36.38
13387;BME280;6763;48.524;9.044;2023-03-14T08:47:37;95904.84;;;18.69;36.48
13387;BME280;6763;48.524;9.044;2023-03-14T08:50:05;95909.97;;;18.71;36.01
13387;BME280;6763;48.524;9.044;2023-03-14T08:52:31;95911.72;;;18.81;36.20
13387;BME280;6763;48.524;9.044;2023-03-14T08:54:57;95908.22;;;18.92;36.11
13387;BME280;6763;48.524;9.044;2023-03-14T08:57:23;95919.31;;;18.95;35.79
13387;BME280;6763;48.524;9.044;2023-03-14T08:59:53;95916.63;;;18.75;35.87
13387;BME280;6763;48.524;9.044;2023-03-14T09:02:19;95923.03;;;18.82;36.11
13387;BME280;6763;48.524;9.044;2023-03-14T09:04:44;95928.88;;;18.85;35.71
13387;BME280;6763;48.524;9.044;2023-03-14T09:07:09;95930.69;;;18.74;36.09
13387;BME280;6763;48.524;9.044;2023-03-14T09:09:35;95928.00;;;18.53;35.72
13387;BME280;6763;48.524;9.044;2023-03-14T09:12:00;95937.03;;;18.38;35.91
13387;BME280;6763;48.524;9.044;2023-03-14T09:14:26;95931.94;;;18.25;36.30
13387;BME280;6763;48.524;9.044;2023-03-14T09:16:51;95932.75;;;17.92;36.80
13387;BME280;6763;48.524;9.044;2023-03-14T09:19:16;95946.09;;;17.78;37.07
13387;BME280;6763;48.524;9.044;2023-03-14T09:21:42;95946.78;;;17.80;37.34
13387;BME280;6763;48.524;9.044;2023-03-14T09:24:07;95939.31;;;17.76;37.57
13387;BME280;6763;48.524;9.044;2023-03-14T09:26:33;95942.38;;;17.70;37.85
13387;BME280;6763;48.524;9.044;2023-03-14T09:28:58;95963.31;;;17.70;37.66
13387;BME280;6763;48.524;9.044;2023-03-14T09:31:23;95943.66;;;17.64;37.84
13387;BME280;6763;48.524;9.044;2023-03-14T09:33:49;95947.50;;;17.71;37.95
13387;BME280;6763;48.524;9.044;2023-03-14T09:36:14;95944.53;;;17.76;38.25
13387;BME280;6763;48.524;9.044;2023-03-14T09:38:40;95956.09;;;17.84;38.40
13387;BME280;6763;48.524;9.044;2023-03-14T09:41:39;95950.97;;;17.94;38.27
13387;BME280;6763;48.524;9.044;2023-03-14T09:44:24;95962.28;;;18.06;38.54
13387;BME280;6763;48.524;9.044;2023-03-14T09:46:53;95955.63;;;18.13;38.26
13387;BME280;6763;48.524;9.044;2023-03-14T09:49:30;95952.88;;;18.14;38.97
13387;BME280;6763;48.524;9.044;2023-03-14T09:51:58;95943.84;;;18.18;38.71
13387;BME280;6763;48.524;9.044;2023-03-14T09:54:36;95948.34;;;18.16;38.11
13387;BME280;6763;48.524;9.044;2023-03-14T09:57:04;95947.88;;;18.11;38.20
13387;BME280;6763;48.524;9.044;2023-03-14T09:59:31;95947.66;;;18.14;38.50
13387;BME280;6763;48.524;9.044;2023-03-14T10:02:12;95951.81;;;18.17;37.91
13387;BME280;6763;48.524;9.044;2023-03-14T10:04:40;95942.88;;;18.19;38.18
13387;BME280;6763;48.524;9.044;2023-03-14T10:07:13;95945.72;;;18.38;38.35
13387;BME280;6763;48.524;9.044;2023-03-14T10:09:42;95945.16;;;18.57;38.16
13387;BME280;6763;48.524;9.044;2023-03-14T10:12:08;95946.88;;;18.79;37.31
13387;BME280;6763;48.524;9.044;2023-03-14T10:14:36;95944.22;;;18.90;36.67
13387;BME280;6763;48.524;9.044;2023-03-14T10:17:11;95946.34;;;18.96;36.16
13387;BME280;6763;48.524;9.044;2023-03-14T10:19:37;95949.31;;;18.91;36.06
13387;BME280;6763;48.524;9.044;2023-03-14T10:22:15;95952.47;;;18.85;35.89
13387;BME280;6763;48.524;9.044;2023-03-14T10:24:46;95953.31;;;18.75;35.98
13387;BME280;6763;48.524;9.044;2023-03-14T10:27:27;95948.34;;;18.61;35.04
13387;BME280;6763;48.524;9.044;2023-03-14T10:30:03;95949.44;;;18.47;35.46
13387;BME280;6763;48.524;9.044;2023-03-14T10:32:37;95968.09;;;18.31;35.76
13387;BME280;6763;48.524;9.044;2023-03-14T10:37:34;95947.38;;;18.39;36.18
13387;BME280;6763;48.524;9.044;2023-03-14T10:40:00;95951.72;;;18.51;36.11
13387;BME280;6763;48.524;9.044;2023-03-14T10:42:41;95950.59;;;18.65;35.82
13387;BME280;6763;48.524;9.044;2023-03-14T10:45:36;95960.00;;;18.68;35.67
13387;BME280;6763;48.524;9.044;2023-03-14T10:53:18;95970.50;;;18.56;35.78
13387;BME280;6763;48.524;9.044;2023-03-14T10:55:44;95956.34;;;18.48;36.25
13387;BME280;6763;48.524;9.044;2023-03-14T10:58:27;95968.72;;;18.02;37.62
13387;BME280;6763;48.524;9.044;2023-03-14T11:01:01;95981.91;;;17.89;38.43
13387;BME280;6763;48.524;9.044;2023-03-14T11:03:32;95994.13;;;17.77;38.95
13387;BME280;6763;48.524;9.044;2023-03-14T11:06:25;95988.53;;;17.71;38.83
13387;BME280;6763;48.524;9.044;2023-03-14T11:09:00;95991.78;;;17.51;39.15
13387;BME280;6763;48.524;9.044;2023-03-14T11:11:31;96005.16;;;17.35;40.39
13387;BME280;6763;48.524;9.044;2023-03-14T11:14:20;95993.28;;;17.42;41.15
13387;BME280;6763;48.524;9.044;2023-03-14T11:17:02;96012.59;;;17.52;41.15
13387;BME280;6763;48.524;9.044;2023-03-14T11:19:39;96003.53;;;17.69;40.69
13387;BME280;6763;48.524;9.044;2023-03-14T11:22:12;96009.34;;;17.72;39.79
13387;BME280;6763;48.524;9.044;2023-03-14T11:24:42;96029.16;;;17.53;40.24
13387;BME280;6763;48.524;9.044;2023-03-14T11:32:35;96034.19;;;16.47;43.10
13387;BME280;6763;48.524;9.044;2023-03-14T11:35:16;96038.91;;;16.04;43.73
13387;BME280;6763;48.524;9.044;2023-03-14T11:37:51;96041.19;;;15.96;43.31
13387;BME280;6763;48.524;9.044;2023-03-14T11:40:20;96041.22;;;16.21;43.21
13387;BME280;6763;48.524;9.044;2023-03-14T11:42:53;96047.03;;;16.37;42.67
13387;BME280;6763;48.524;9.044;2023-03-14T11:45:24;96050.09;;;16.56;42.73
13387;BME280;6763;48.524;9.044;2023-03-14T11:48:10;96044.28;;;16.77;42.28
13387;BME280;6763;48.524;9.044;2023-03-14T11:50:42;96039.84;;;16.90;41.80
13387;BME280;6763;48.524;9.044;2023-03-14T11:53:13;96063.72;;;16.85;42.22
13387;BME280;6763;48.524;9.044;2023-03-14T11:55:42;96047.53;;;16.80;42.56
13387;BME280;6763;48.524;9.044;2023-03-14T11:58:29;96069.47;;;16.78;43.17
13387;BME280;6763;48.524;9.044;2023-03-14T12:00:57;96065.09;;;16.65;43.54
13387;BME280;6763;48.524;9.044;2023-03-14T12:03:54;96076.28;;;16.42;44.10
13387;BME280;6763;48.524;9.044;2023-03-14T12:06:28;96090.69;;;16.35;44.43
13387;BME280;6763;48.524;9.044;2023-03-14T12:09:02;96096.75;;;16.10;46.56
13387;BME280;6763;48.524;9.044;2023-03-14T12:11:48;96102.84;;;15.72;48.19
13387;BME280;6763;48.524;9.044;2023-03-14T12:14:25;96112.56;;;15.29;50.03
13387;BME280;6763;48.524;9.044;2023-03-14T12:16:58;96123.84;;;14.74;52.05
13387;BME280;6763;48.524;9.044;2023-03-14T12:24:37;96146.94;;;14.22;45.27
13387;BME280;6763;48.524;9.044;2023-03-14T12:27:05;96141.47;;;14.27;46.38
13387;BME280;6763;48.524;9.044;2023-03-14T12:29:32;96168.03;;;14.62;45.46
13387;BME280;6763;48.524;9.044;2023-03-14T12:34:28;96159.13;;;15.35;41.86
13387;BME280;6763;48.524;9.044;2023-03-14T12:36:56;96174.25;;;15.83;40.18
13387;BME280;6763;48.524;9.044;2023-03-14T12:42:10;96185.94;;;16.42;38.90
13387;BME280;6763;48.524;9.044;2023-03-14T12:44:44;96201.56;;;16.56;38.07
13387;BME280;6763;48.524;9.044;2023-03-14T12:49:41;96211.91;;;16.70;35.83
13387;BME280;6763;48.524;9.044;2023-03-14T12:52:15;96196.31;;;17.07;34.22
13387;BME280;6763;48.524;9.044;2023-03-14T12:57:28;96250.28;;;17.82;31.13
13387;BME280;6763;48.524;9.044;2023-03-14T12:59:59;96229.72;;;18.12;29.90
13387;BME280;6763;48.524;9.044;2023-03-14T13:07:32;96237.16;;;18.06;29.35
13387;BME280;6763;48.524;9.044;2023-03-14T13:10:02;96292.59;;;17.38;29.23
13387;BME280;6763;48.524;9.044;2023-03-14T13:12:40;96287.59;;;16.97;29.53
13387;BME280;6763;48.524;9.044;2023-03-14T13:15:17;96301.88;;;16.66;30.33
13387;BME280;6763;48.524;9.044;2023-03-14T13:17:43;96314.56;;;16.85;30.50
13387;BME280;6763;48.524;9.044;2023-03-14T13:20:16;96341.13;;;17.04;30.21
13387;BME280;6763;48.524;9.044;2023-03-14T13:22:47;96337.25;;;17.10;29.92
13387;BME280;6763;48.524;9.044;2023-03-14T13:25:12;96345.28;;;16.82;29.84
13387;BME280;6763;48.524;9.044;2023-03-14T13:27:38;96376.94;;;16.77;30.10
13387;BME280;6763;48.524;9.044;2023-03-14T13:30:24;96370.88;;;16.77;30.33
13387;BME280;6763;48.524;9.044;2023-03-14T13:32:51;96383.91;;;16.64;30.75
13387;BME280;6763;48.524;9.044;2023-03-14T13:35:38;96376.06;;;16.50;30.96
13387;BME280;6763;48.524;9.044;2023-03-14T13:38:04;96384.13;;;16.47;30.91
13387;BME280;6763;48.524;9.044;2023-03-14T13:40:32;96401.03;;;16.41;31.50
13387;BME280;6763;48.524;9.044;2023-03-14T13:43:01;96408.88;;;16.41;31.01
13387;BME280;6763;48.524;9.044;2023-03-14T13:45:28;96409.34;;;16.34;30.76
13387;BME280;6763;48.524;9.044;2023-03-14T13:47:53;96429.53;;;16.18;31.12
13387;BME280;6763;48.524;9.044;2023-03-14T13:50:19;96448.19;;;15.97;30.43
13387;BME280;6763;48.524;9.044;2023-03-14T13:52:44;96454.84;;;15.59;30.26
13387;BME280;6763;48.524;9.044;2023-03-14T13:55:17;96459.16;;;15.60;30.63